createdAt,value
2019-04-04T00:04:08.141Z,6.60
2019-04-04T00:09:15.664Z,6.50
2019-04-04T00:14:22.031Z,6.60
2019-04-04T00:19:30.006Z,6.60
2019-04-04T00:24:36.285Z,6.70
2019-04-04T00:29:42.729Z,6.60
2019-04-04T00:34:49.316Z,6.50
2019-04-04T00:39:55.755Z,6.50
2019-04-04T00:45:02.118Z,6.50
2019-04-04T00:50:09.698Z,6.60
2019-04-04T00:55:16.389Z,6.60
2019-04-04T01:00:25.559Z,6.60
2019-04-04T01:05:32.551Z,6.60
2019-04-04T01:10:39.291Z,6.40
2019-04-04T01:15:45.600Z,6.40
2019-04-04T01:20:51.850Z,6.50
2019-04-04T01:25:58.139Z,6.40
2019-04-04T01:31:05.820Z,6.50
2019-04-04T01:36:12.039Z,6.40
2019-04-04T01:41:18.804Z,6.50
2019-04-04T01:46:25.051Z,6.60
2019-04-04T01:51:31.274Z,6.50
2019-04-04T01:56:37.718Z,6.40
2019-04-04T02:01:46.693Z,6.50
2019-04-04T02:06:52.091Z,6.50
2019-04-04T02:11:58.363Z,6.30
2019-04-04T02:17:04.754Z,6.30
2019-04-04T02:22:11.011Z,6.20
2019-04-04T02:27:17.384Z,6.20
2019-04-04T02:32:26.615Z,6.10
2019-04-04T02:37:32.465Z,6.10
2019-04-04T02:42:38.996Z,6.00
2019-04-04T02:47:45.227Z,6.10
2019-04-04T02:52:51.552Z,6.20
2019-04-04T02:57:57.883Z,6.10
2019-04-04T03:03:08.206Z,6.20
2019-04-04T03:08:12.374Z,6.10
2019-04-04T03:13:18.626Z,5.90
2019-04-04T03:18:24.955Z,5.80
2019-04-04T03:23:33.814Z,5.80
2019-04-04T03:28:39.624Z,5.80
2019-04-04T03:33:45.980Z,5.80
2019-04-04T03:38:52.280Z,5.70
2019-04-04T03:43:58.515Z,5.80
2019-04-04T03:49:05.675Z,5.90
2019-04-04T03:54:15.621Z,5.80
2019-04-04T03:59:22.004Z,5.80
2019-04-04T04:04:28.585Z,5.80
2019-04-04T04:09:34.903Z,5.80
2019-04-04T04:14:41.368Z,5.90
2019-04-04T04:19:48.830Z,5.90
2019-04-04T04:24:55.315Z,5.80
2019-04-04T04:30:06.101Z,5.80
2019-04-04T04:35:10.675Z,5.80
2019-04-04T04:40:17.025Z,5.90
2019-04-04T04:45:24.179Z,6.00
2019-04-04T04:50:30.486Z,6.00
2019-04-04T04:55:36.922Z,6.00
2019-04-04T05:00:45.183Z,5.90
2019-04-04T05:05:51.861Z,5.90
2019-04-04T05:10:58.217Z,5.90
2019-04-04T05:16:08.565Z,5.90
2019-04-04T05:21:24.365Z,5.90
2019-04-04T05:26:21.454Z,5.90
2019-04-04T05:31:28.305Z,6.00
2019-04-04T05:36:36.749Z,5.90
2019-04-04T05:41:42.767Z,6.00
2019-04-04T05:46:51.122Z,6.00
2019-04-04T05:51:57.336Z,5.90
2019-04-04T05:57:03.687Z,5.90
2019-04-04T06:02:11.542Z,6.00
2019-04-04T06:07:18.609Z,6.10
2019-04-04T06:12:25.662Z,6.00
2019-04-04T06:17:32.174Z,6.20
2019-04-04T06:22:38.613Z,6.10
2019-04-04T06:27:45.027Z,6.10
2019-04-04T06:32:51.337Z,6.20
2019-04-04T06:37:57.753Z,6.30
2019-04-04T06:43:07.441Z,6.40
2019-04-04T06:48:12.480Z,6.50
2019-04-04T06:53:20.396Z,6.50
2019-04-04T06:58:26.877Z,6.50
2019-04-04T07:03:33.418Z,6.40
2019-04-04T07:08:39.888Z,6.40
2019-04-04T07:13:46.136Z,6.50
2019-04-04T07:18:52.622Z,6.50
2019-04-04T07:24:00.133Z,6.60
2019-04-04T07:29:06.908Z,6.60
2019-04-04T07:34:14.230Z,6.60
2019-04-04T07:39:21.738Z,6.70
2019-04-04T07:44:28.173Z,6.90
2019-04-04T07:49:34.564Z,7.00
2019-04-04T07:54:40.979Z,6.90
2019-04-04T07:59:47.279Z,7.00
2019-04-04T08:04:53.569Z,7.00
2019-04-04T08:10:00.005Z,7.10
2019-04-04T08:15:07.458Z,7.00
2019-04-04T08:20:14.009Z,7.30
2019-04-04T08:25:20.316Z,7.30
2019-04-04T08:30:26.617Z,7.40
2019-04-04T08:35:33.039Z,7.50
2019-04-04T08:40:39.702Z,7.60
2019-04-04T08:45:47.833Z,7.80
2019-04-04T08:50:54.094Z,8.00
2019-04-04T08:56:00.527Z,8.40
2019-04-04T09:01:06.824Z,8.40
2019-04-04T09:06:13.202Z,8.80
2019-04-04T09:11:19.605Z,8.80
2019-04-04T09:16:25.872Z,8.80
2019-04-04T09:21:32.312Z,8.80
2019-04-04T09:26:38.818Z,9.00
2019-04-04T09:31:45.249Z,8.80
2019-04-04T09:36:51.615Z,8.90
2019-04-04T09:41:57.985Z,9.30
2019-04-04T09:47:05.662Z,9.60
2019-04-04T09:52:12.403Z,9.60
2019-04-04T09:57:18.773Z,9.90
2019-04-04T10:02:25.466Z,10.00
2019-04-04T10:07:31.819Z,9.90
2019-04-04T10:12:38.234Z,10.00
2019-04-04T10:17:45.872Z,10.00
2019-04-04T10:22:53.361Z,10.00
2019-04-04T10:27:59.836Z,10.20
2019-04-04T10:33:06.193Z,10.10
2019-04-04T10:38:12.522Z,10.50
2019-04-04T10:43:18.962Z,10.70
2019-04-04T10:48:36.857Z,11.10
2019-04-04T10:53:43.328Z,11.70
2019-04-04T10:58:49.667Z,11.80
2019-04-04T11:03:56.036Z,11.40
2019-04-04T11:09:02.359Z,11.20
2019-04-04T11:14:10.282Z,10.90
2019-04-04T11:19:16.559Z,10.60
2019-04-04T11:24:22.949Z,10.70
2019-04-04T11:29:30.389Z,10.20
2019-04-04T11:34:36.625Z,10.20
2019-04-04T11:39:54.068Z,10.10
2019-04-04T11:44:50.861Z,9.90
2019-04-04T11:49:57.309Z,9.90
2019-04-04T11:55:03.701Z,9.60
2019-04-04T12:00:12.007Z,9.50
2019-04-04T12:05:18.716Z,9.50
2019-04-04T12:10:24.947Z,9.70
2019-04-04T12:15:31.227Z,9.50
2019-04-04T12:20:37.610Z,9.60
2019-04-04T12:25:43.929Z,9.60
2019-04-04T12:30:50.265Z,9.60
2019-04-04T12:35:57.107Z,9.50
2019-04-04T12:41:03.512Z,9.40
2019-04-04T12:46:09.847Z,9.40
2019-04-04T12:51:16.275Z,9.40
2019-04-04T12:56:22.507Z,9.60
2019-04-04T13:01:28.756Z,9.50
2019-04-04T13:06:35.110Z,9.20
2019-04-04T13:11:42.621Z,9.00
2019-04-04T13:16:49.159Z,9.00
2019-04-04T13:21:55.572Z,9.10
2019-04-04T13:27:01.892Z,9.10
2019-04-04T13:32:08.442Z,9.10
2019-04-04T13:37:14.796Z,9.00
2019-04-04T13:42:21.269Z,9.00
2019-04-04T13:47:27.847Z,9.00
2019-04-04T13:52:34.124Z,9.00
2019-04-04T13:57:40.493Z,8.90
2019-04-04T14:02:46.780Z,8.80
2019-04-04T14:07:53.107Z,8.60
2019-04-04T14:12:59.800Z,8.60
2019-04-04T14:18:22.083Z,8.80
2019-04-04T14:23:28.644Z,8.80
2019-04-04T14:28:35.130Z,8.90
2019-04-04T14:33:41.424Z,9.00
2019-04-04T14:38:47.676Z,9.10
2019-04-04T14:43:53.925Z,8.90
2019-04-04T14:49:00.277Z,8.90
2019-04-04T14:54:06.620Z,9.00
2019-04-04T14:59:13.989Z,8.90
2019-04-04T15:04:20.659Z,8.80
2019-04-04T15:09:27.135Z,8.70
2019-04-04T15:14:33.652Z,8.80
2019-04-04T15:19:39.975Z,9.00
2019-04-04T15:24:46.480Z,9.00
2019-04-04T15:29:52.904Z,9.20
2019-04-04T15:34:59.194Z,9.00
2019-04-04T15:40:06.452Z,9.20
2019-04-04T15:45:14.358Z,9.30
2019-04-04T15:50:20.778Z,9.10
2019-04-04T15:55:27.115Z,9.30
2019-04-04T16:00:33.753Z,9.40
2019-04-04T16:05:40.341Z,9.40
2019-04-04T16:10:46.754Z,9.30
2019-04-04T16:15:53.340Z,9.40
2019-04-04T16:20:59.680Z,9.20
2019-04-04T16:26:06.087Z,9.20
2019-04-04T16:31:12.859Z,9.00
2019-04-04T16:36:19.275Z,9.10
2019-04-04T16:41:25.624Z,9.10
2019-04-04T16:46:32.913Z,9.10
2019-04-04T16:51:39.773Z,9.10
2019-04-04T16:56:46.210Z,9.00
2019-04-04T17:01:52.639Z,8.90
2019-04-04T17:06:59.123Z,8.70
2019-04-04T17:12:14.695Z,8.90
2019-04-04T17:17:13.985Z,8.80
2019-04-04T17:22:20.411Z,8.70
2019-04-04T17:27:26.960Z,8.60
2019-04-04T17:32:33.926Z,8.60
2019-04-04T17:37:41.446Z,8.70
2019-04-04T17:42:48.739Z,8.60
2019-04-04T17:47:55.097Z,8.60
2019-04-04T17:53:04.124Z,8.60
2019-04-04T17:58:11.536Z,8.50
2019-04-04T18:03:17.910Z,8.20
2019-04-04T18:08:24.205Z,8.20
2019-04-04T18:13:32.237Z,8.10
2019-04-04T18:18:39.938Z,8.10
2019-04-04T18:23:46.692Z,8.10
2019-04-04T18:28:54.238Z,8.00
2019-04-04T18:34:00.931Z,8.10
2019-04-04T18:39:08.750Z,8.10
2019-04-04T18:44:15.104Z,7.90
2019-04-04T18:49:21.499Z,7.80
2019-04-04T18:54:28.057Z,7.80
2019-04-04T18:59:34.520Z,7.80
2019-04-04T19:04:41.912Z,7.70
2019-04-04T19:09:48.257Z,7.80
2019-04-04T19:14:54.990Z,7.80
2019-04-04T19:20:02.242Z,7.70
2019-04-04T19:25:08.987Z,7.70
2019-04-04T19:30:17.788Z,7.60
2019-04-04T19:35:25.834Z,7.70
2019-04-04T19:40:32.258Z,7.50
2019-04-04T19:45:39.467Z,7.50
2019-04-04T19:50:45.852Z,7.50
2019-04-04T19:55:52.138Z,7.50
2019-04-04T20:00:58.727Z,7.60
2019-04-04T20:06:05.391Z,7.60
2019-04-04T20:11:11.671Z,7.50
2019-04-04T20:16:18.090Z,7.50
2019-04-04T20:21:24.503Z,7.40
2019-04-04T20:26:30.983Z,7.50
2019-04-04T20:31:38.247Z,7.40
2019-04-04T20:36:44.572Z,7.40
2019-04-04T20:41:50.771Z,7.30
2019-04-04T20:46:57.076Z,7.30
2019-04-04T20:52:03.292Z,7.40
2019-04-04T20:57:09.754Z,7.30
2019-04-04T21:02:16.056Z,7.20
2019-04-04T21:07:22.356Z,7.40
2019-04-04T21:12:28.681Z,7.30
2019-04-04T21:17:34.880Z,7.30
2019-04-04T21:22:41.194Z,7.30
2019-04-04T21:27:47.988Z,7.30
2019-04-04T21:32:54.322Z,7.40
2019-04-04T21:38:00.646Z,7.10
2019-04-04T21:43:07.086Z,7.10
2019-04-04T21:48:13.436Z,6.90
2019-04-04T21:53:19.790Z,6.90
2019-04-04T21:58:26.371Z,7.00
2019-04-04T22:03:32.765Z,7.10
2019-04-04T22:08:39.182Z,7.00
2019-04-04T22:13:45.925Z,7.00
2019-04-04T22:18:52.201Z,6.80
2019-04-04T22:23:58.824Z,6.80
2019-04-04T22:29:05.548Z,6.90
2019-04-04T22:34:11.866Z,7.00
2019-04-04T22:39:18.071Z,6.90
2019-04-04T22:44:34.106Z,7.00
2019-04-04T22:49:32.420Z,6.90
2019-04-04T22:54:38.765Z,6.90
2019-04-04T22:59:45.156Z,6.80
2019-04-04T23:04:51.765Z,6.70
2019-04-04T23:09:58.094Z,6.60
2019-04-04T23:15:05.894Z,6.50
2019-04-04T23:20:12.236Z,6.60
2019-04-04T23:25:18.543Z,6.70
2019-04-04T23:30:24.780Z,6.80
2019-04-04T23:35:31.121Z,6.70
2019-04-04T23:40:37.391Z,6.50
2019-04-04T23:45:43.792Z,6.60
2019-04-04T23:50:50.031Z,6.60
2019-04-04T23:55:56.301Z,6.50
